Time;durP1;ratioP1;P1;durP2;ratioP2;P2;SDS_P1;SDS_P2;PMS_P1;PMS_P2;Temp;Humidity;BMP_temperature;BMP_pressure;BME280_temperature;BME280_humidity;BME280_pressure;Samples;Min_cycle;Max_cycle;Signal;HPM_P1;HPM_P2
2022/01/09 00:00:34;;;;;;;4.75;2.38;;;5.40;99.90;;;;;;4982549;28;20033;-78
2022/01/09 00:03:00;;;;;;;2.03;1.83;;;5.30;99.90;;;;;;5001794;28;20077;-78
2022/01/09 00:05:26;;;;;;;1.60;1.55;;;5.40;99.90;;;;;;4983251;28;20052;-78
2022/01/09 00:07:53;;;;;;;2.45;2.22;;;5.40;99.90;;;;;;5001892;28;20045;-78
2022/01/09 00:10:19;;;;;;;8.73;2.10;;;5.40;99.90;;;;;;5001004;28;20053;-78
2022/01/09 00:12:44;;;;;;;1.83;1.73;;;5.40;99.90;;;;;;5002002;28;20049;-78
2022/01/09 00:15:10;;;;;;;1.67;1.42;;;5.40;99.90;;;;;;4982632;28;20815;-78
2022/01/09 00:17:39;;;;;;;2.03;1.92;;;5.40;99.90;;;;;;4983035;28;20808;-77
2022/01/09 00:20:06;;;;;;;1.58;1.48;;;5.40;99.90;;;;;;5001759;28;20069;-77
2022/01/09 00:22:45;;;;;;;7.15;2.17;;;5.40;99.90;;;;;;5001285;28;20489;-78
2022/01/09 00:25:12;;;;;;;2.58;2.00;;;5.40;99.90;;;;;;4983627;28;20050;-77
2022/01/09 00:27:38;;;;;;;1.65;1.55;;;5.40;99.90;;;;;;5001324;28;20050;-78
2022/01/09 00:30:06;;;;;;;2.95;1.40;;;5.50;99.90;;;;;;4990712;28;20077;-78
2022/01/09 00:32:31;;;;;;;4.05;2.47;;;5.50;99.90;;;;;;4998034;28;20528;-78
2022/01/09 00:34:57;;;;;;;12.95;1.63;;;5.50;99.90;;;;;;5000485;28;20042;-78
2022/01/09 00:37:23;;;;;;;1.25;1.20;;;5.60;99.90;;;;;;5001081;28;20370;-78
2022/01/09 00:39:48;;;;;;;0.85;0.85;;;5.70;99.90;;;;;;4983784;28;20399;-78
2022/01/09 00:42:14;;;;;;;0.77;0.57;;;5.70;99.90;;;;;;5001073;28;20121;-78
2022/01/09 00:44:39;;;;;;;1.08;1.08;;;5.70;99.90;;;;;;4999937;28;20049;-78
2022/01/09 00:47:05;;;;;;;5.82;1.48;;;5.70;99.90;;;;;;5000932;28;20049;-78
2022/01/09 00:49:30;;;;;;;1.75;1.65;;;5.70;99.90;;;;;;5000599;28;20049;-78
2022/01/09 00:51:56;;;;;;;0.93;0.90;;;5.70;99.90;;;;;;4982856;28;20042;-77
2022/01/09 00:54:22;;;;;;;2.33;0.93;;;5.80;99.90;;;;;;5001154;28;20050;-77
2022/01/09 00:56:48;;;;;;;2.10;1.92;;;5.80;99.90;;;;;;5001002;28;20382;-77
2022/01/09 00:59:14;;;;;;;1.25;1.20;;;5.80;99.90;;;;;;5001016;28;20056;-77
2022/01/09 01:01:39;;;;;;;6.00;1.30;;;5.80;99.90;;;;;;4981978;28;20085;-77
2022/01/09 01:04:05;;;;;;;7.55;1.55;;;5.80;99.90;;;;;;4983870;28;20294;-77
2022/01/09 01:06:30;;;;;;;5.70;1.33;;;5.80;99.90;;;;;;5000230;28;20069;-77
2022/01/09 01:08:56;;;;;;;3.95;0.75;;;5.80;99.90;;;;;;4982990;28;20053;-77
2022/01/09 01:11:22;;;;;;;1.25;1.17;;;5.80;99.90;;;;;;5000066;28;20558;-77
2022/01/09 01:13:48;;;;;;;2.00;1.85;;;5.80;99.90;;;;;;5001369;28;20085;-77
2022/01/09 01:16:14;;;;;;;8.30;1.90;;;5.80;99.90;;;;;;4982144;28;20176;-77
2022/01/09 01:18:43;;;;;;;2.15;1.35;;;5.80;99.90;;;;;;4966795;28;20404;-77
2022/01/09 01:21:08;;;;;;;0.88;0.88;;;5.80;99.90;;;;;;5000373;28;20117;-77
2022/01/09 01:23:34;;;;;;;0.95;0.95;;;5.80;99.90;;;;;;4982949;28;20176;-77
2022/01/09 01:26:02;;;;;;;0.73;0.60;;;5.80;99.90;;;;;;4982965;28;20046;-77
2022/01/09 01:28:28;;;;;;;11.80;2.55;;;5.80;99.90;;;;;;4982317;28;20077;-77
2022/01/09 01:30:54;;;;;;;8.90;1.88;;;5.90;99.90;;;;;;4968444;28;20069;-77
2022/01/09 01:33:19;;;;;;;11.00;1.98;;;5.80;99.90;;;;;;4983094;28;20527;-77
2022/01/09 01:35:45;;;;;;;19.17;2.30;;;5.80;99.90;;;;;;5000501;28;20384;-77
2022/01/09 01:38:11;;;;;;;5.15;1.85;;;5.80;99.90;;;;;;4983060;28;20049;-77
2022/01/09 01:40:36;;;;;;;15.77;2.97;;;5.80;99.90;;;;;;4999404;28;20041;-77
2022/01/09 01:43:02;;;;;;;8.10;1.02;;;5.80;99.90;;;;;;4983179;28;20038;-77
2022/01/09 01:45:28;;;;;;;16.20;2.65;;;5.80;99.90;;;;;;4999360;28;20408;-77
2022/01/09 01:47:53;;;;;;;16.02;2.42;;;5.90;99.90;;;;;;5000204;28;20038;-77
2022/01/09 01:50:20;;;;;;;4.38;1.23;;;5.90;99.90;;;;;;5000579;28;20390;-77
2022/01/09 01:52:50;;;;;;;9.48;2.78;;;5.80;99.90;;;;;;4983468;28;20056;-77
2022/01/09 01:55:17;;;;;;;5.47;2.38;;;5.90;99.90;;;;;;4967084;28;20061;-77
2022/01/09 01:57:44;;;;;;;2.08;1.75;;;5.90;99.90;;;;;;4985511;28;20054;-77
2022/01/09 02:00:12;;;;;;;7.18;1.45;;;5.90;99.90;;;;;;5002578;28;20405;-77
2022/01/09 02:02:38;;;;;;;5.25;2.40;;;5.90;99.90;;;;;;4985845;28;20272;-77
2022/01/09 02:05:07;;;;;;;10.77;3.92;;;5.90;99.90;;;;;;5004055;28;20405;-77
2022/01/09 02:07:33;;;;;;;6.40;1.98;;;6.00;99.90;;;;;;5003509;28;20127;-77
2022/01/09 02:09:59;;;;;;;10.05;4.18;;;6.00;99.90;;;;;;5013790;23;20175;-75
2022/01/09 02:12:26;;;;;;;9.18;2.67;;;6.00;99.90;;;;;;5023364;28;20100;-74
2022/01/09 02:14:51;;;;;;;18.10;3.20;;;6.00;99.90;;;;;;5022606;28;20123;-75
2022/01/09 02:17:19;;;;;;;18.55;3.28;;;6.00;99.90;;;;;;5023239;28;20081;-76
2022/01/09 02:19:53;;;;;;;15.25;4.60;;;6.10;99.90;;;;;;5023755;28;20048;-74
2022/01/09 02:22:18;;;;;;;3.33;1.95;;;6.10;99.90;;;;;;5023249;28;20049;-75
2022/01/09 02:24:44;;;;;;;10.35;2.95;;;6.10;99.90;;;;;;5008525;28;20045;-74
2022/01/09 02:27:10;;;;;;;33.47;5.07;;;6.10;99.90;;;;;;5003340;28;20054;-74
2022/01/09 02:29:35;;;;;;;49.05;2.97;;;6.10;99.90;;;;;;5007843;28;20037;-74
2022/01/09 02:32:04;;;;;;;22.48;3.83;;;6.20;99.90;;;;;;5022527;28;20045;-74
2022/01/09 02:34:32;;;;;;;5.45;1.95;;;6.20;99.90;;;;;;5005256;28;20049;-74
2022/01/09 02:36:57;;;;;;;3.35;2.60;;;6.20;99.90;;;;;;5008658;28;20121;-74
2022/01/09 02:39:23;;;;;;;8.38;3.10;;;6.20;99.90;;;;;;5003092;28;20754;-74
2022/01/09 02:41:48;;;;;;;11.00;2.85;;;6.20;99.90;;;;;;5003294;28;20496;-74
2022/01/09 02:44:14;;;;;;;14.85;3.72;;;6.20;99.90;;;;;;5002433;28;20502;-74
2022/01/09 02:47:02;;;;;;;7.88;2.55;;;6.20;99.90;;;;;;5002392;28;20073;-75
2022/01/09 02:49:29;;;;;;;23.08;5.13;;;6.20;99.90;;;;;;4969103;28;20472;-74
2022/01/09 02:51:55;;;;;;;9.60;2.58;;;6.20;99.90;;;;;;5009388;28;20037;-75
2022/01/09 02:57:05;;;;;;;9.05;1.73;;;6.20;99.90;;;;;;5002723;28;20056;-74
2022/01/09 02:59:30;;;;;;;3.35;1.38;;;6.20;99.90;;;;;;5009712;28;20038;-74
2022/01/09 03:01:56;;;;;;;14.32;3.33;;;6.20;99.90;;;;;;5004491;28;20072;-74
2022/01/09 03:04:21;;;;;;;11.55;2.58;;;6.20;99.90;;;;;;5004760;28;20045;-74
2022/01/09 03:06:47;;;;;;;10.32;2.42;;;6.20;99.90;;;;;;5022400;28;20037;-74
2022/01/09 03:09:12;;;;;;;7.97;2.38;;;6.20;99.90;;;;;;5022583;28;20419;-74
2022/01/09 03:11:39;;;;;;;14.98;2.70;;;6.10;99.90;;;;;;5015562;28;20042;-74
2022/01/09 03:14:07;;;;;;;6.03;2.72;;;6.20;99.90;;;;;;4983729;28;20100;-74
2022/01/09 03:16:33;;;;;;;23.70;3.40;;;6.20;99.90;;;;;;5002402;28;20045;-74
2022/01/09 03:18:59;;;;;;;11.07;2.80;;;6.20;99.90;;;;;;5002637;28;20041;-74
2022/01/09 03:21:24;;;;;;;4.05;2.65;;;6.20;99.90;;;;;;5002478;28;20045;-75
2022/01/09 03:23:50;;;;;;;6.93;1.60;;;6.20;99.90;;;;;;5004194;28;20095;-74
2022/01/09 03:26:15;;;;;;;6.28;1.67;;;6.20;99.90;;;;;;5022491;28;20083;-75
2022/01/09 03:28:41;;;;;;;9.27;2.55;;;6.20;99.90;;;;;;5004392;28;20045;-74
2022/01/09 03:31:06;;;;;;;9.57;1.25;;;6.20;99.90;;;;;;5020757;28;20033;-75
2022/01/09 03:33:32;;;;;;;11.95;2.83;;;6.20;99.90;;;;;;5021625;28;20045;-74
2022/01/09 03:35:57;;;;;;;19.00;1.75;;;6.20;99.90;;;;;;5004100;28;20167;-75
2022/01/09 03:38:23;;;;;;;25.33;2.47;;;6.20;99.90;;;;;;4985029;28;20107;-74
2022/01/09 03:40:49;;;;;;;10.07;2.15;;;6.20;99.90;;;;;;5001707;28;20241;-75
2022/01/09 03:43:14;;;;;;;20.27;4.35;;;6.20;99.90;;;;;;4968784;28;20356;-75
2022/01/09 03:45:40;;;;;;;8.07;2.20;;;6.20;99.90;;;;;;5001220;28;20068;-74
2022/01/09 03:48:05;;;;;;;17.80;3.13;;;6.20;99.90;;;;;;5016163;28;20037;-74
2022/01/09 03:50:32;;;;;;;21.88;2.00;;;6.20;99.90;;;;;;5003893;28;20110;-74
2022/01/09 03:52:58;;;;;;;12.20;1.92;;;6.20;99.90;;;;;;5020568;28;20695;-74
2022/01/09 03:55:24;;;;;;;4.78;0.90;;;6.20;99.90;;;;;;5021132;28;20164;-74
2022/01/09 03:57:50;;;;;;;19.23;2.05;;;6.10;99.90;;;;;;4987252;28;20037;-74
2022/01/09 04:00:19;;;;;;;9.30;1.98;;;6.10;99.90;;;;;;5003345;28;20127;-74
2022/01/09 04:02:45;;;;;;;12.00;2.05;;;6.10;99.90;;;;;;5004181;28;20124;-74
2022/01/09 04:05:11;;;;;;;1.25;1.13;;;6.10;99.90;;;;;;5021743;28;20605;-74
2022/01/09 04:07:37;;;;;;;7.22;3.05;;;6.10;99.90;;;;;;5003124;28;20041;-74
2022/01/09 04:10:04;;;;;;;1.77;1.48;;;6.10;99.90;;;;;;5021171;28;20161;-74
2022/01/09 04:12:34;;;;;;;8.52;1.42;;;6.10;99.90;;;;;;5002962;28;20053;-74
2022/01/09 04:15:05;;;;;;;8.10;2.60;;;6.10;99.90;;;;;;5020522;28;20056;-74
2022/01/09 04:20:15;;;;;;;12.38;2.10;;;6.10;99.90;;;;;;5001311;28;20046;-74
2022/01/09 04:22:40;;;;;;;11.45;2.38;;;6.10;99.90;;;;;;5001008;28;20522;-74
2022/01/09 04:25:07;;;;;;;8.73;1.42;;;6.10;99.90;;;;;;5001375;28;20690;-74
2022/01/09 04:27:33;;;;;;;2.67;1.27;;;6.10;99.90;;;;;;5018506;28;20030;-75
2022/01/09 04:29:59;;;;;;;4.82;1.77;;;6.10;99.90;;;;;;5020134;28;20033;-74
2022/01/09 04:32:24;;;;;;;0.30;0.30;;;6.10;99.90;;;;;;5018463;28;20108;-74
2022/01/09 04:34:50;;;;;;;8.93;1.38;;;6.00;99.90;;;;;;5020485;28;20520;-74
2022/01/09 04:37:17;;;;;;;0.77;0.77;;;6.10;99.90;;;;;;5003961;28;20056;-74
2022/01/09 04:39:43;;;;;;;3.90;1.95;;;6.00;99.90;;;;;;5004034;28;20049;-74
2022/01/09 04:42:09;;;;;;;7.78;1.65;;;6.00;99.90;;;;;;5004119;28;20053;-74
2022/01/09 04:44:35;;;;;;;3.20;1.15;;;6.00;99.90;;;;;;5000060;28;20474;-74
2022/01/09 04:47:07;;;;;;;3.45;1.15;;;6.00;99.90;;;;;;5001816;28;20081;-74
2022/01/09 04:49:38;;;;;;;9.35;2.45;;;6.00;99.90;;;;;;4983603;28;20079;-74
2022/01/09 04:52:06;;;;;;;4.38;2.08;;;6.00;99.90;;;;;;4995039;28;20744;-74
2022/01/09 04:54:32;;;;;;;1.35;1.25;;;6.00;99.90;;;;;;5001359;28;20041;-74
2022/01/09 04:56:57;;;;;;;5.50;2.15;;;6.00;99.90;;;;;;5000822;28;20534;-74
2022/01/09 04:59:23;;;;;;;0.90;0.90;;;6.00;99.90;;;;;;4982279;28;20825;-74
2022/01/09 05:01:48;;;;;;;1.77;0.85;;;6.00;99.90;;;;;;5000220;28;20061;-74
2022/01/09 05:04:14;;;;;;;1.95;1.23;;;6.00;99.90;;;;;;4999765;28;20034;-74
2022/01/09 05:06:39;;;;;;;5.57;1.38;;;6.00;99.90;;;;;;5000592;28;20077;-74
2022/01/09 05:09:05;;;;;;;28.25;2.47;;;6.00;99.90;;;;;;5000741;28;20096;-74
2022/01/09 05:11:30;;;;;;;5.80;1.60;;;6.00;99.90;;;;;;5000865;28;20050;-74
2022/01/09 05:13:56;;;;;;;9.13;2.05;;;6.00;99.90;;;;;;4982585;28;20045;-74
2022/01/09 05:16:22;;;;;;;4.00;2.17;;;6.00;99.90;;;;;;4983295;28;20073;-74
2022/01/09 05:18:53;;;;;;;4.22;0.55;;;6.00;99.90;;;;;;5000905;28;20046;-75
2022/01/09 05:21:18;;;;;;;14.05;2.95;;;6.00;99.90;;;;;;5012955;28;20525;-74
2022/01/09 05:23:44;;;;;;;3.60;1.20;;;6.00;99.90;;;;;;5020903;28;20491;-74
2022/01/09 05:26:10;;;;;;;7.82;2.10;;;6.00;99.90;;;;;;5002570;28;20048;-74
2022/01/09 05:28:35;;;;;;;18.40;1.95;;;6.00;99.90;;;;;;5001456;28;20048;-74
2022/01/09 05:31:04;;;;;;;8.35;2.53;;;6.00;99.90;;;;;;5022285;28;20442;-74
2022/01/09 05:33:29;;;;;;;2.40;1.23;;;6.00;99.90;;;;;;5006380;28;20480;-74
2022/01/09 05:35:55;;;;;;;2.85;1.75;;;5.90;99.90;;;;;;5011480;28;20096;-74
2022/01/09 05:38:21;;;;;;;2.40;0.98;;;5.90;99.90;;;;;;4986798;28;20536;-74
2022/01/09 05:40:47;;;;;;;5.18;1.10;;;6.00;99.90;;;;;;4986983;28;20152;-74
2022/01/09 05:43:14;;;;;;;10.05;2.42;;;6.00;99.90;;;;;;5004507;28;20124;-74
2022/01/09 05:45:40;;;;;;;2.15;1.48;;;5.90;99.90;;;;;;4993268;28;20075;-74
2022/01/09 05:48:06;;;;;;;5.45;1.35;;;5.90;99.90;;;;;;5024260;28;20037;-74
2022/01/09 05:50:32;;;;;;;3.58;1.58;;;5.90;99.90;;;;;;5023872;28;20041;-75
2022/01/09 05:52:58;;;;;;;0.98;0.90;;;5.90;99.90;;;;;;5024017;28;20037;-74
2022/01/09 05:55:23;;;;;;;3.72;1.05;;;6.00;99.90;;;;;;5023037;28;20743;-74
2022/01/09 05:57:49;;;;;;;8.38;1.92;;;5.90;99.90;;;;;;5006199;28;20423;-74
2022/01/09 06:00:15;;;;;;;7.57;1.20;;;5.90;99.90;;;;;;5023097;28;20037;-74
2022/01/09 06:02:41;;;;;;;5.30;2.00;;;5.90;99.90;;;;;;5023193;28;20037;-74
2022/01/09 06:05:08;;;;;;;1.55;0.85;;;5.90;99.90;;;;;;5023424;28;20037;-74
2022/01/09 06:07:34;;;;;;;4.30;1.70;;;5.90;99.90;;;;;;5005635;28;20526;-74
2022/01/09 06:09:59;;;;;;;1.27;1.27;;;5.90;99.90;;;;;;5005584;28;20111;-74
2022/01/09 06:12:25;;;;;;;4.68;1.48;;;5.90;99.90;;;;;;5022984;28;20045;-74
2022/01/09 06:14:51;;;;;;;7.05;1.35;;;5.90;99.90;;;;;;5020485;28;20408;-74
2022/01/09 06:17:17;;;;;;;9.20;1.90;;;5.90;99.90;;;;;;4986152;28;20050;-74
2022/01/09 06:19:43;;;;;;;1.75;1.42;;;5.90;99.90;;;;;;5017400;28;20080;-74
2022/01/09 06:22:08;;;;;;;3.97;2.15;;;5.90;99.90;;;;;;5004969;28;20056;-74
2022/01/09 06:24:34;;;;;;;2.40;1.05;;;5.90;99.90;;;;;;4995070;28;20061;-74
2022/01/09 06:27:00;;;;;;;23.35;1.63;;;5.80;99.90;;;;;;5003876;28;20057;-74
2022/01/09 06:29:25;;;;;;;4.28;1.67;;;5.80;99.90;;;;;;4988435;28;20049;-74
2022/01/09 06:31:51;;;;;;;10.30;1.67;;;5.80;99.90;;;;;;5011442;28;20045;-74
2022/01/09 06:34:17;;;;;;;14.85;1.70;;;5.80;99.90;;;;;;4985969;28;20117;-74
2022/01/09 06:36:42;;;;;;;10.98;0.93;;;5.80;99.90;;;;;;5003583;28;20176;-74
2022/01/09 06:39:08;;;;;;;3.10;1.58;;;5.70;99.90;;;;;;5003017;28;20357;-74
2022/01/09 06:41:34;;;;;;;4.95;2.08;;;5.70;99.90;;;;;;4985348;28;20065;-74
2022/01/09 06:43:59;;;;;;;5.28;1.35;;;5.70;99.90;;;;;;5014410;28;20076;-74
2022/01/09 06:46:26;;;;;;;2.17;1.23;;;5.70;99.90;;;;;;5012975;28;20388;-75
2022/01/09 06:48:52;;;;;;;3.22;1.58;;;5.70;99.90;;;;;;5002249;28;20046;-75
2022/01/09 06:51:18;;;;;;;10.65;1.20;;;5.70;99.90;;;;;;5022490;28;20188;-75
2022/01/09 06:53:43;;;;;;;0.47;0.47;;;5.70;99.90;;;;;;4997849;28;20506;-74
2022/01/09 06:56:09;;;;;;;5.35;0.63;;;5.70;99.90;;;;;;5021036;28;20148;-75
2022/01/09 06:58:37;;;;;;;0.90;0.77;;;5.70;99.90;;;;;;5020726;28;20515;-75
2022/01/09 07:01:04;;;;;;;3.30;1.05;;;5.70;99.90;;;;;;5022635;28;20197;-75
2022/01/09 07:03:30;;;;;;;0.70;0.70;;;5.60;99.90;;;;;;5005088;28;20092;-75
2022/01/09 07:05:56;;;;;;;2.97;1.20;;;5.60;99.90;;;;;;5008105;28;20050;-75
2022/01/09 07:08:22;;;;;;;3.17;1.08;;;5.60;99.90;;;;;;5002066;28;20488;-75
2022/01/09 07:10:47;;;;;;;5.72;1.05;;;5.60;99.90;;;;;;5002605;28;20481;-75
2022/01/09 07:13:13;;;;;;;2.38;1.48;;;5.50;99.90;;;;;;5003063;28;20108;-75
2022/01/09 07:15:39;;;;;;;3.30;0.90;;;5.50;99.90;;;;;;4983643;28;20091;-75
2022/01/09 07:18:04;;;;;;;3.05;1.40;;;5.50;99.90;;;;;;5003942;28;20490;-75
2022/01/09 07:20:30;;;;;;;2.10;1.17;;;5.50;99.90;;;;;;5002339;28;20041;-75
2022/01/09 07:22:56;;;;;;;3.47;0.93;;;5.50;99.90;;;;;;5002111;28;20420;-75
2022/01/09 07:25:21;;;;;;;1.13;0.38;;;5.50;99.90;;;;;;5010687;28;20072;-75
2022/01/09 07:27:47;;;;;;;2.25;0.15;;;5.50;99.90;;;;;;5011307;28;20053;-77
2022/01/09 07:30:13;;;;;;;2.03;1.13;;;5.50;99.90;;;;;;5017107;28;20049;-75
2022/01/09 07:32:40;;;;;;;2.15;1.25;;;5.50;99.90;;;;;;5024700;28;20042;-75
2022/01/09 07:35:06;;;;;;;0.95;0.90;;;5.50;99.90;;;;;;5021659;28;20056;-74
2022/01/09 07:37:32;;;;;;;2.67;1.85;;;5.50;99.90;;;;;;5021613;28;20037;-74
2022/01/09 07:40:02;;;;;;;7.88;1.13;;;5.50;99.90;;;;;;5015565;28;20183;-74
2022/01/09 07:42:28;;;;;;;11.95;0.95;;;5.60;99.90;;;;;;5001689;28;20555;-75
2022/01/09 07:44:53;;;;;;;8.88;1.15;;;5.60;99.90;;;;;;5000115;28;20046;-74
2022/01/09 07:47:19;;;;;;;1.20;1.02;;;5.50;99.90;;;;;;5002465;28;20065;-74
2022/01/09 07:49:44;;;;;;;3.40;0.95;;;5.50;99.90;;;;;;4993939;28;20052;-75
2022/01/09 07:52:10;;;;;;;0.30;0.30;;;5.50;99.90;;;;;;5023900;28;20045;-74
2022/01/09 07:54:35;;;;;;;8.98;1.20;;;5.50;99.90;;;;;;4997985;28;20076;-74
2022/01/09 07:57:04;;;;;;;3.85;1.23;;;5.50;99.90;;;;;;5019537;28;20045;-74
2022/01/09 07:59:30;;;;;;;3.60;1.33;;;5.40;99.90;;;;;;5001290;28;20048;-75
2022/01/09 08:01:55;;;;;;;6.05;1.75;;;5.50;99.90;;;;;;4999741;28;20491;-76
2022/01/09 08:04:21;;;;;;;9.05;1.95;;;5.40;99.90;;;;;;5003275;28;20045;-76
2022/01/09 08:06:46;;;;;;;2.42;1.05;;;5.50;99.90;;;;;;5012275;28;20045;-78
2022/01/09 08:09:12;;;;;;;1.92;1.02;;;5.50;99.90;;;;;;5017960;28;20056;-75
2022/01/09 08:11:37;;;;;;;3.30;2.05;;;5.50;99.90;;;;;;5018362;28;20053;-75
2022/01/09 08:14:03;;;;;;;2.17;1.60;;;5.50;99.90;;;;;;5018388;28;20438;-75
2022/01/09 08:16:29;;;;;;;4.38;1.67;;;5.50;99.90;;;;;;5001569;28;20596;-75
2022/01/09 08:18:54;;;;;;;2.30;1.60;;;5.60;99.90;;;;;;5020495;28;20085;-75
2022/01/09 08:21:20;;;;;;;5.00;1.75;;;5.50;99.90;;;;;;5019488;28;20492;-75
2022/01/09 08:23:49;;;;;;;1.65;1.55;;;5.60;99.90;;;;;;5019447;28;20052;-75
2022/01/09 08:26:16;;;;;;;6.97;0.90;;;5.60;99.90;;;;;;5001614;28;20041;-75
2022/01/09 08:28:44;;;;;;;23.73;1.58;;;5.50;99.90;;;;;;5001105;28;20160;-75
2022/01/09 08:31:11;;;;;;;2.20;1.38;;;5.50;99.90;;;;;;5001525;28;20049;-75
2022/01/09 08:33:37;;;;;;;13.90;0.85;;;5.50;99.90;;;;;;4985362;28;20313;-75
2022/01/09 08:36:03;;;;;;;0.98;0.73;;;5.50;99.90;;;;;;5001427;28;20450;-75
2022/01/09 08:38:28;;;;;;;3.50;0.73;;;5.50;99.90;;;;;;5018353;28;20565;-76
2022/01/09 08:40:54;;;;;;;0.40;0.40;;;5.50;99.90;;;;;;5019265;28;20523;-75
2022/01/09 08:43:20;;;;;;;1.67;0.63;;;5.50;99.90;;;;;;5000923;28;20714;-75
2022/01/09 08:45:45;;;;;;;12.43;1.55;;;5.50;99.90;;;;;;5019519;28;20037;-75
2022/01/09 08:48:11;;;;;;;2.08;1.00;;;5.50;99.90;;;;;;5019270;28;20048;-75
2022/01/09 08:50:37;;;;;;;0.77;0.77;;;5.50;99.90;;;;;;5001321;28;20502;-75
2022/01/09 08:53:02;;;;;;;9.40;2.15;;;5.40;99.90;;;;;;5019716;28;20103;-75
2022/01/09 08:55:28;;;;;;;2.83;0.60;;;5.40;99.90;;;;;;5018956;28;20124;-75
2022/01/09 08:57:57;;;;;;;6.30;1.45;;;5.40;99.90;;;;;;5018463;28;20350;-75
2022/01/09 09:00:23;;;;;;;0.82;0.60;;;5.40;99.90;;;;;;5018699;28;20137;-75
2022/01/09 09:02:48;;;;;;;16.73;1.05;;;5.40;99.90;;;;;;5018920;28;20116;-75
2022/01/09 09:05:14;;;;;;;3.25;1.17;;;5.40;99.90;;;;;;5019201;28;20403;-75
2022/01/09 09:07:39;;;;;;;11.70;1.05;;;5.40;99.90;;;;;;5004554;28;20488;-75
2022/01/09 09:10:07;;;;;;;1.40;0.52;;;5.30;99.90;;;;;;5022567;28;20459;-75
2022/01/09 09:12:33;;;;;;;8.45;1.33;;;5.30;99.90;;;;;;5005070;28;20083;-75
2022/01/09 09:15:00;;;;;;;0.10;0.10;;;5.30;99.90;;;;;;5022256;28;20065;-75
2022/01/09 09:17:27;;;;;;;0.63;0.63;;;5.30;99.90;;;;;;5004987;28;20068;-75
2022/01/09 09:19:54;;;;;;;0.30;0.30;;;5.30;99.90;;;;;;5022761;28;20045;-75
2022/01/09 09:22:19;;;;;;;3.85;1.80;;;5.30;99.90;;;;;;5021894;28;20136;-75
2022/01/09 09:24:45;;;;;;;2.30;1.00;;;5.30;99.90;;;;;;5023241;28;20318;-75
2022/01/09 09:27:11;;;;;;;1.52;0.88;;;5.30;99.90;;;;;;5022959;28;20056;-76
2022/01/09 09:29:36;;;;;;;1.88;1.02;;;5.30;99.90;;;;;;5003590;28;20037;-75
2022/01/09 09:32:02;;;;;;;2.17;0.98;;;5.30;99.90;;;;;;5022295;28;20722;-75
2022/01/09 09:34:28;;;;;;;3.30;1.05;;;5.30;99.90;;;;;;5022039;28;20542;-75
2022/01/09 09:36:54;;;;;;;2.33;0.70;;;5.30;99.90;;;;;;5005418;28;20152;-75
2022/01/09 09:39:20;;;;;;;9.43;1.60;;;5.30;99.90;;;;;;5004382;28;20227;-76
2022/01/09 09:41:45;;;;;;;1.27;1.00;;;5.30;99.90;;;;;;5004563;28;20074;-75
2022/01/09 09:44:12;;;;;;;0.30;0.30;;;5.30;99.90;;;;;;5021823;28;20408;-75
2022/01/09 09:46:38;;;;;;;3.15;1.67;;;5.40;99.90;;;;;;5004395;28;20050;-75
2022/01/09 09:49:04;;;;;;;1.55;1.02;;;5.40;99.90;;;;;;5022271;28;20107;-75
2022/01/09 09:51:30;;;;;;;5.20;1.83;;;5.40;99.90;;;;;;5021184;28;20128;-75
2022/01/09 09:53:57;;;;;;;6.63;1.42;;;5.50;99.90;;;;;;5004539;28;20040;-75
2022/01/09 09:56:23;;;;;;;2.67;1.33;;;5.50;99.90;;;;;;5022309;28;20047;-75
2022/01/09 09:58:50;;;;;;;7.72;0.75;;;5.50;99.90;;;;;;5021211;28;20124;-75
2022/01/09 10:01:27;;;;;;;2.17;1.45;;;5.60;99.90;;;;;;4988191;28;20041;-78
2022/01/09 10:04:02;;;;;;;15.63;1.60;;;5.60;99.90;;;;;;5022007;28;20299;-76
2022/01/09 10:06:42;;;;;;;6.30;0.70;;;5.60;99.90;;;;;;5022143;28;20088;-75
2022/01/09 10:09:20;;;;;;;1.45;1.35;;;5.60;99.90;;;;;;5022159;28;20384;-75
2022/01/09 10:11:47;;;;;;;7.10;1.35;;;5.60;99.90;;;;;;5022173;28;20045;-75
2022/01/09 10:14:24;;;;;;;0.80;0.65;;;5.60;99.90;;;;;;5021527;28;20049;-75
2022/01/09 10:17:19;;;;;;;2.45;0.98;;;5.60;99.90;;;;;;5002510;28;20136;-75
2022/01/09 10:20:03;;;;;;;0.95;0.82;;;5.60;99.90;;;;;;5021727;28;20523;-75
2022/01/09 10:22:39;;;;;;;5.68;1.95;;;5.60;99.90;;;;;;5021527;28;20045;-75
2022/01/09 10:25:27;;;;;;;1.17;0.65;;;5.60;99.90;;;;;;5021515;28;20072;-75
2022/01/09 10:28:17;;;;;;;3.92;0.82;;;5.70;99.90;;;;;;5002461;28;20057;-75
2022/01/09 10:30:43;;;;;;;1.55;0.90;;;5.70;99.90;;;;;;4987708;28;20755;-75
2022/01/09 10:33:12;;;;;;;4.03;0.30;;;5.70;99.90;;;;;;5020842;28;20514;-75
2022/01/09 10:35:40;;;;;;;8.00;2.22;;;5.70;99.90;;;;;;5021052;28;20067;-75
2022/01/09 10:38:08;;;;;;;0.93;0.93;;;5.70;99.90;;;;;;5021856;28;20645;-75
2022/01/09 10:40:36;;;;;;;4.85;1.85;;;5.70;99.90;;;;;;5021792;28;20042;-75
2022/01/09 10:43:07;;;;;;;10.55;1.70;;;5.70;99.90;;;;;;5020698;28;20075;-75
2022/01/09 10:45:36;;;;;;;7.22;1.92;;;5.70;99.90;;;;;;5021002;28;20080;-75
2022/01/09 10:48:10;;;;;;;4.00;1.23;;;5.70;99.90;;;;;;5021606;28;20125;-75
2022/01/09 10:50:38;;;;;;;3.20;1.23;;;5.80;99.90;;;;;;5021084;28;20049;-75
2022/01/09 10:53:22;;;;;;;2.88;0.93;;;5.80;99.90;;;;;;5003779;28;20041;-75
2022/01/09 10:56:00;;;;;;;3.95;1.40;;;5.80;99.90;;;;;;5002915;28;20049;-76
2022/01/09 10:58:27;;;;;;;10.13;2.17;;;5.80;99.90;;;;;;5001963;28;20084;-75
2022/01/09 11:01:12;;;;;;;1.05;1.05;;;5.90;99.90;;;;;;5021263;28;20037;-75
2022/01/09 11:03:39;;;;;;;10.57;0.90;;;5.90;99.90;;;;;;5002373;28;20045;-75
2022/01/09 11:06:08;;;;;;;0.45;0.43;;;5.90;99.90;;;;;;5020645;28;20037;-75
2022/01/09 11:08:35;;;;;;;2.10;0.93;;;6.00;99.90;;;;;;5002973;28;20154;-75
2022/01/09 11:11:10;;;;;;;1.75;1.10;;;6.00;99.90;;;;;;5020866;28;20037;-75
2022/01/09 11:13:41;;;;;;;5.78;1.20;;;6.00;99.90;;;;;;5019397;28;20061;-75
2022/01/09 11:18:52;;;;;;;0.70;0.70;;;6.00;99.90;;;;;;5002835;28;20135;-74
2022/01/09 11:21:18;;;;;;;0.95;0.95;;;6.00;99.90;;;;;;5020549;28;20041;-75
2022/01/09 11:24:05;;;;;;;5.40;1.38;;;6.00;99.90;;;;;;5021141;28;20048;-74
2022/01/09 11:27:14;;;;;;;0.35;0.35;;;6.00;99.90;;;;;;5002332;28;20053;-75
2022/01/09 11:30:03;;;;;;;1.10;1.00;;;5.90;99.90;;;;;;4956435;28;20448;-75
2022/01/09 11:32:51;;;;;;;2.50;1.10;;;5.90;99.90;;;;;;5019959;28;20041;-75
2022/01/09 11:35:52;;;;;;;0.90;0.77;;;5.90;99.90;;;;;;5019493;28;20132;-75
2022/01/09 11:38:43;;;;;;;11.00;1.67;;;5.90;99.90;;;;;;5020228;28;20116;-75
2022/01/09 11:41:14;;;;;;;7.10;1.17;;;5.90;99.90;;;;;;5020078;28;20049;-75
2022/01/09 11:44:01;;;;;;;11.80;1.13;;;5.90;99.90;;;;;;5018877;28;20045;-75
2022/01/09 11:46:30;;;;;;;1.13;0.98;;;5.90;99.90;;;;;;5019877;28;20284;-75
2022/01/09 11:48:55;;;;;;;3.08;0.70;;;6.00;99.90;;;;;;5020358;28;20321;-75
2022/01/09 11:51:24;;;;;;;0.25;0.25;;;5.90;99.90;;;;;;5002293;28;20451;-75
2022/01/09 11:54:16;;;;;;;1.77;0.90;;;5.90;99.90;;;;;;5019836;28;20072;-75
2022/01/09 11:56:44;;;;;;;7.68;1.13;;;5.90;99.90;;;;;;5019885;28;20117;-75
2022/01/09 11:59:26;;;;;;;13.55;1.25;;;5.90;99.90;;;;;;5019019;28;20046;-75
2022/01/09 12:01:54;;;;;;;;;;;5.90;99.90;;;;;;5020450;28;20338;-75
2022/01/09 12:04:35;;;;;;;0.30;0.30;;;5.90;99.90;;;;;;5019576;28;20150;-75
2022/01/09 12:07:03;;;;;;;9.65;0.95;;;5.90;99.90;;;;;;5019747;28;20076;-75
2022/01/09 12:09:36;;;;;;;2.72;0.90;;;5.90;99.90;;;;;;5001135;28;20511;-75
2022/01/09 12:12:06;;;;;;;4.18;1.23;;;5.90;99.90;;;;;;5019846;28;20049;-75
2022/01/09 12:14:58;;;;;;;2.78;0.77;;;5.90;99.90;;;;;;5018300;28;20484;-75
2022/01/09 12:17:26;;;;;;;0.38;0.38;;;5.80;99.90;;;;;;5019345;28;20053;-75
2022/01/09 12:20:13;;;;;;;0.45;0.40;;;5.80;99.90;;;;;;5001292;28;20090;-75
2022/01/09 12:22:49;;;;;;;8.45;0.82;;;5.70;99.90;;;;;;5001129;28;20045;-75
2022/01/09 12:28:08;;;;;;;0.43;0.40;;;5.70;99.90;;;;;;5001071;28;20063;-75
2022/01/09 12:30:40;;;;;;;1.50;0.95;;;5.60;99.90;;;;;;5001790;28;20057;-75
2022/01/09 12:33:39;;;;;;;3.33;1.08;;;5.60;99.90;;;;;;5019680;28;20057;-76
2022/01/09 12:36:14;;;;;;;1.50;1.20;;;5.70;99.90;;;;;;5000875;28;20519;-75
2022/01/09 12:38:47;;;;;;;0.73;0.45;;;5.60;99.90;;;;;;5019084;28;20048;-75
2022/01/09 12:41:18;;;;;;;0.82;0.60;;;5.70;99.90;;;;;;5019089;28;20048;-75
2022/01/09 12:43:45;;;;;;;5.47;1.30;;;5.60;99.90;;;;;;5001161;28;20049;-75
2022/01/09 12:46:13;;;;;;;0.52;0.52;;;5.60;99.90;;;;;;5018678;28;20057;-75
2022/01/09 12:48:40;;;;;;;0.35;0.35;;;5.60;99.90;;;;;;5018303;28;20044;-75
2022/01/09 12:51:15;;;;;;;0.75;0.52;;;5.70;99.90;;;;;;5001127;28;20045;-75
2022/01/09 12:53:49;;;;;;;5.15;0.88;;;5.70;99.90;;;;;;5001140;28;20060;-75
2022/01/09 12:56:23;;;;;;;6.65;0.73;;;5.70;99.90;;;;;;5002000;28;20046;-75
2022/01/09 12:58:53;;;;;;;0.10;0.10;;;5.70;99.90;;;;;;5018439;28;20542;-75
2022/01/09 13:01:31;;;;;;;0.28;0.28;;;5.60;99.90;;;;;;5001209;28;20049;-75
2022/01/09 13:03:59;;;;;;;0.35;0.32;;;5.60;99.90;;;;;;5001078;28;20330;-75
2022/01/09 13:06:32;;;;;;;2.50;0.73;;;5.60;99.90;;;;;;5019094;28;20046;-75
2022/01/09 13:09:04;;;;;;;8.30;1.35;;;5.60;99.90;;;;;;5018555;28;20440;-75
2022/01/09 13:11:31;;;;;;;1.33;0.65;;;5.50;99.90;;;;;;5018542;28;20077;-75